createdAt,value
2018-11-29T00:00:40.713Z,10.83
2018-11-29T00:03:10.680Z,13.50
2018-11-29T00:05:39.550Z,12.20
2018-11-29T00:08:08.134Z,11.20
2018-11-29T00:10:36.993Z,10.87
2018-11-29T00:13:05.848Z,13.73
2018-11-29T00:15:34.712Z,11.10
2018-11-29T00:18:03.530Z,9.97
2018-11-29T00:20:32.706Z,10.23
2018-11-29T00:23:01.229Z,11.03
2018-11-29T00:25:36.026Z,10.23
2018-11-29T00:28:04.573Z,10.47
2018-11-29T00:30:33.106Z,11.60
2018-11-29T00:33:01.643Z,11.20
2018-11-29T00:35:30.298Z,10.53
2018-11-29T00:37:58.828Z,11.70
2018-11-29T00:40:27.378Z,11.47
2018-11-29T00:42:56.018Z,9.20
2018-11-29T00:45:24.870Z,11.70
2018-11-29T00:47:54.308Z,11.27
2018-11-29T00:50:22.874Z,12.47
2018-11-29T00:52:52.055Z,12.17
2018-11-29T00:55:25.659Z,11.97
2018-11-29T00:57:54.530Z,11.20
2018-11-29T01:00:24.961Z,11.40
2018-11-29T01:02:53.668Z,12.37
2018-11-29T01:05:22.292Z,11.10
2018-11-29T01:07:50.913Z,13.27
2018-11-29T01:10:20.011Z,11.87
2018-11-29T01:12:49.094Z,13.67
2018-11-29T01:15:19.984Z,12.10
2018-11-29T01:17:49.382Z,11.17
2018-11-29T01:20:18.806Z,12.67
2018-11-29T01:22:47.501Z,12.77
2018-11-29T01:25:16.403Z,12.60
2018-11-29T01:27:46.301Z,15.37
2018-11-29T01:30:17.185Z,13.67
2018-11-29T01:32:45.719Z,14.00
2018-11-29T01:35:15.329Z,15.00
2018-11-29T01:37:43.977Z,12.93
2018-11-29T01:40:17.234Z,13.87
2018-11-29T01:42:47.620Z,15.67
2018-11-29T01:45:16.174Z,15.00
2018-11-29T01:47:44.721Z,14.27
2018-11-29T01:50:13.287Z,14.23
2018-11-29T01:52:41.837Z,15.83
2018-11-29T01:55:10.640Z,12.93
2018-11-29T01:57:39.240Z,14.83
2018-11-29T02:00:17.104Z,15.40
2018-11-29T02:02:47.848Z,14.70
2018-11-29T02:05:16.426Z,14.90
2018-11-29T02:07:44.963Z,12.60
2018-11-29T02:10:19.788Z,15.60
2018-11-29T02:12:48.298Z,14.23
2018-11-29T02:15:16.869Z,13.40
2018-11-29T02:17:45.423Z,14.53
2018-11-29T02:20:19.099Z,14.90
2018-11-29T02:22:48.282Z,14.70
2018-11-29T02:25:16.937Z,15.60
2018-11-29T02:27:45.485Z,13.90
2018-11-29T02:30:17.595Z,14.17
2018-11-29T02:32:46.348Z,14.20
2018-11-29T02:35:14.968Z,14.60
2018-11-29T02:37:43.521Z,14.90
2018-11-29T02:40:14.009Z,14.00
2018-11-29T02:42:42.902Z,14.27
2018-11-29T02:45:13.754Z,15.10
2018-11-29T02:47:42.344Z,15.70
2018-11-29T02:50:11.668Z,14.00
2018-11-29T02:52:40.284Z,14.03
2018-11-29T02:55:10.065Z,13.97
2018-11-29T02:57:38.755Z,15.00
2018-11-29T03:00:16.859Z,14.70
2018-11-29T03:02:45.389Z,15.60
2018-11-29T03:05:14.141Z,15.77
2018-11-29T03:07:42.809Z,15.03
2018-11-29T03:10:13.374Z,14.73
2018-11-29T03:12:42.297Z,16.47
2018-11-29T03:15:12.044Z,16.50
2018-11-29T03:17:40.696Z,15.07
2018-11-29T03:20:12.318Z,16.03
2018-11-29T03:22:40.924Z,15.73
2018-11-29T03:25:15.484Z,15.80
2018-11-29T03:27:44.351Z,16.50
2018-11-29T03:30:14.804Z,15.40
2018-11-29T03:32:43.436Z,14.80
2018-11-29T03:35:12.845Z,15.10
2018-11-29T03:37:41.480Z,16.20
2018-11-29T03:40:11.503Z,14.57
2018-11-29T03:42:40.326Z,16.10
2018-11-29T03:45:11.012Z,15.03
2018-11-29T03:47:39.975Z,14.77
2018-11-29T03:50:13.062Z,16.80
2018-11-29T03:52:41.678Z,14.67
2018-11-29T03:55:10.980Z,15.00
2018-11-29T03:57:40.434Z,12.93
2018-11-29T04:00:14.994Z,13.87
2018-11-29T04:02:43.834Z,15.27
2018-11-29T04:05:12.612Z,15.17
2018-11-29T04:07:41.369Z,13.50
2018-11-29T04:10:12.060Z,13.63
2018-11-29T04:12:40.692Z,14.80
2018-11-29T04:15:11.388Z,14.70
2018-11-29T04:17:40.935Z,14.90
2018-11-29T04:20:10.699Z,13.70
2018-11-29T04:22:39.286Z,13.83
2018-11-29T04:25:09.594Z,15.20
2018-11-29T04:27:38.207Z,13.80
2018-11-29T04:30:09.345Z,15.60
2018-11-29T04:32:37.903Z,12.77
2018-11-29T04:35:08.221Z,14.73
2018-11-29T04:37:36.837Z,13.10
2018-11-29T04:40:06.209Z,13.10
2018-11-29T04:42:34.824Z,16.93
2018-11-29T04:45:03.415Z,14.93
2018-11-29T04:47:32.102Z,14.87
2018-11-29T04:50:00.664Z,15.27
2018-11-29T04:52:29.323Z,14.23
2018-11-29T04:54:58.014Z,14.30
2018-11-29T04:57:26.661Z,15.40
2018-11-29T04:59:55.249Z,14.77
2018-11-29T05:02:23.888Z,16.07
2018-11-29T05:04:52.445Z,15.43
2018-11-29T05:07:20.970Z,15.87
2018-11-29T05:09:49.609Z,14.33
2018-11-29T05:12:18.166Z,15.80
2018-11-29T05:14:46.932Z,16.43
2018-11-29T05:17:15.482Z,17.33
2018-11-29T05:19:44.185Z,16.70
2018-11-29T05:22:12.888Z,17.67
2018-11-29T05:24:41.417Z,17.00
2018-11-29T05:27:10.166Z,16.40
2018-11-29T05:29:38.763Z,16.20
2018-11-29T05:32:07.341Z,17.30
2018-11-29T05:34:36.007Z,16.40
2018-11-29T05:37:04.739Z,16.97
2018-11-29T05:39:33.323Z,17.60
2018-11-29T05:42:01.872Z,17.77
2018-11-29T05:44:30.637Z,16.57
2018-11-29T05:46:59.219Z,18.10
2018-11-29T05:49:28.063Z,16.40
2018-11-29T05:51:56.670Z,17.90
2018-11-29T05:54:31.778Z,15.17
2018-11-29T05:57:00.375Z,15.90
2018-11-29T05:59:28.978Z,14.60
2018-11-29T06:01:57.657Z,14.90
2018-11-29T06:04:26.210Z,14.77
2018-11-29T06:06:54.847Z,15.83
2018-11-29T06:09:23.444Z,14.73
2018-11-29T06:11:52.168Z,15.80
2018-11-29T06:14:20.751Z,14.27
2018-11-29T06:16:49.304Z,15.87
2018-11-29T06:19:17.896Z,15.67
2018-11-29T06:21:46.513Z,14.10
2018-11-29T06:24:15.038Z,16.43
2018-11-29T06:26:43.669Z,16.37
2018-11-29T06:29:12.303Z,14.20
2018-11-29T06:31:40.927Z,16.17
2018-11-29T06:34:09.512Z,15.57
2018-11-29T06:36:38.138Z,14.20
2018-11-29T06:39:09.169Z,13.77
2018-11-29T06:41:37.767Z,13.80
2018-11-29T06:44:06.514Z,15.33
2018-11-29T06:46:35.165Z,12.30
2018-11-29T06:49:03.778Z,13.47
2018-11-29T06:51:32.439Z,13.40
2018-11-29T06:54:01.026Z,13.90
2018-11-29T06:56:29.621Z,13.43
2018-11-29T06:58:58.257Z,13.80
2018-11-29T07:01:26.961Z,15.07
2018-11-29T07:03:55.494Z,12.77
2018-11-29T07:06:24.034Z,13.80
2018-11-29T07:08:52.804Z,14.47
2018-11-29T07:11:21.381Z,13.53
2018-11-29T07:13:49.964Z,14.87
2018-11-29T07:16:18.654Z,13.57
2018-11-29T07:18:47.238Z,13.70
2018-11-29T07:21:26.946Z,13.87
2018-11-29T07:23:55.987Z,15.60
2018-11-29T07:26:24.699Z,13.40
2018-11-29T07:28:53.655Z,14.33
2018-11-29T07:31:22.217Z,14.43
2018-11-29T07:33:51.817Z,15.07
2018-11-29T07:36:20.398Z,14.40
2018-11-29T07:38:49.009Z,14.87
2018-11-29T07:41:17.652Z,15.07
2018-11-29T07:43:46.214Z,14.43
2018-11-29T07:46:14.875Z,14.33
2018-11-29T07:48:43.501Z,13.40
2018-11-29T07:51:12.085Z,12.53
2018-11-29T07:53:40.703Z,12.90
2018-11-29T07:56:09.273Z,14.93
2018-11-29T07:58:38.007Z,12.53
2018-11-29T08:01:07.346Z,14.90
2018-11-29T08:03:36.001Z,14.00
2018-11-29T08:06:04.651Z,13.50
2018-11-29T08:08:33.216Z,13.60
2018-11-29T08:11:01.903Z,13.33
2018-11-29T08:13:31.644Z,14.40
2018-11-29T08:16:00.447Z,13.23
2018-11-29T08:18:29.612Z,13.57
2018-11-29T08:20:58.189Z,13.03
2018-11-29T08:23:26.753Z,13.40
2018-11-29T08:25:55.539Z,13.70
2018-11-29T08:28:24.191Z,13.10
2018-11-29T08:30:52.866Z,13.20
2018-11-29T08:33:21.661Z,11.93
2018-11-29T08:35:50.277Z,13.00
2018-11-29T08:38:18.864Z,13.13
2018-11-29T08:40:47.457Z,14.27
2018-11-29T08:43:16.123Z,12.73
2018-11-29T08:45:44.641Z,13.33
2018-11-29T08:48:13.212Z,11.97
2018-11-29T08:50:41.953Z,12.20
2018-11-29T08:53:10.579Z,13.23
2018-11-29T08:55:39.129Z,12.57
2018-11-29T08:58:07.719Z,13.63
2018-11-29T09:00:36.281Z,14.10
2018-11-29T09:03:04.866Z,13.27
2018-11-29T09:05:34.102Z,14.20
2018-11-29T09:08:02.641Z,11.30
2018-11-29T09:10:31.771Z,13.37
2018-11-29T09:12:59.840Z,12.80
2018-11-29T09:15:28.378Z,12.33
2018-11-29T09:17:57.003Z,12.63
2018-11-29T09:20:25.814Z,12.27
2018-11-29T09:22:54.496Z,10.87
2018-11-29T09:25:23.579Z,13.50
2018-11-29T09:27:52.212Z,12.80
2018-11-29T09:30:22.423Z,13.60
2018-11-29T09:32:52.215Z,12.30
2018-11-29T09:35:20.821Z,12.20
2018-11-29T09:37:49.930Z,12.33
2018-11-29T09:40:19.007Z,13.00
2018-11-29T09:42:47.770Z,16.67
2018-11-29T09:45:20.203Z,11.43
2018-11-29T09:47:50.834Z,13.07
2018-11-29T09:50:19.595Z,11.83
2018-11-29T09:52:48.217Z,11.40
2018-11-29T09:55:17.591Z,13.20
2018-11-29T09:57:46.885Z,14.93
2018-11-29T10:00:32.391Z,13.00
2018-11-29T10:03:06.669Z,11.43
2018-11-29T10:05:35.281Z,11.63
2018-11-29T10:08:03.845Z,13.80
2018-11-29T10:10:32.388Z,13.63
2018-11-29T10:13:01.085Z,12.10
2018-11-29T10:15:29.698Z,11.00
2018-11-29T10:17:58.302Z,13.90
2018-11-29T10:20:26.900Z,19.03
2018-11-29T10:22:55.470Z,14.80
2018-11-29T10:25:24.029Z,15.50
2018-11-29T10:27:55.341Z,15.13
2018-11-29T10:30:28.613Z,16.40
2018-11-29T10:32:57.264Z,12.53
2018-11-29T10:35:26.179Z,13.20
2018-11-29T10:37:54.828Z,12.80
2018-11-29T10:40:23.410Z,13.13
2018-11-29T10:42:52.127Z,14.07
2018-11-29T10:45:21.143Z,13.20
2018-11-29T10:47:52.823Z,13.87
2018-11-29T10:50:21.047Z,17.30
2018-11-29T10:52:49.609Z,16.47
2018-11-29T10:55:19.063Z,13.07
2018-11-29T10:57:47.645Z,14.43
2018-11-29T11:00:28.802Z,15.50
2018-11-29T11:03:04.296Z,14.33
2018-11-29T11:05:33.116Z,14.07
2018-11-29T11:08:07.894Z,14.33
2018-11-29T11:10:30.315Z,13.33
2018-11-29T11:12:58.857Z,14.77
2018-11-29T11:15:27.389Z,12.37
2018-11-29T11:17:56.007Z,13.27
2018-11-29T11:20:24.603Z,12.10
2018-11-29T11:22:53.190Z,12.10
2018-11-29T11:25:21.789Z,11.70
2018-11-29T11:27:50.331Z,11.10
2018-11-29T11:30:20.142Z,11.70
2018-11-29T11:32:52.506Z,12.53
2018-11-29T11:35:21.057Z,13.10
2018-11-29T11:37:49.622Z,12.50
2018-11-29T11:40:18.365Z,12.23
2018-11-29T11:42:47.375Z,12.60
2018-11-29T11:45:18.112Z,10.40
2018-11-29T11:47:46.792Z,11.10
2018-11-29T11:50:20.544Z,18.60
2018-11-29T11:52:49.621Z,12.07
2018-11-29T11:55:19.275Z,11.20
2018-11-29T11:57:47.456Z,9.37
2018-11-29T12:00:19.548Z,12.67
2018-11-29T12:02:49.471Z,10.93
2018-11-29T12:05:18.021Z,10.90
2018-11-29T12:07:46.642Z,12.07
2018-11-29T12:10:15.970Z,11.13
2018-11-29T12:12:44.669Z,10.63
2018-11-29T12:15:14.054Z,10.00
2018-11-29T12:17:43.919Z,9.20
2018-11-29T12:20:14.836Z,9.23
2018-11-29T12:22:43.429Z,12.10
2018-11-29T12:25:13.174Z,11.67
2018-11-29T12:27:41.717Z,8.33
2018-11-29T12:30:18.927Z,8.83
2018-11-29T12:32:47.469Z,8.90
2018-11-29T12:35:16.395Z,9.50
2018-11-29T12:37:45.062Z,8.30
2018-11-29T12:40:14.876Z,7.60
2018-11-29T12:42:43.389Z,7.20
2018-11-29T12:45:12.957Z,7.53
2018-11-29T12:47:41.649Z,7.70
2018-11-29T12:50:17.447Z,6.70
2018-11-29T12:52:46.077Z,5.80
2018-11-29T12:55:15.594Z,7.03
2018-11-29T12:57:44.437Z,6.40
2018-11-29T13:00:14.186Z,5.60
2018-11-29T13:03:00.496Z,6.40
2018-11-29T13:05:29.368Z,6.63
2018-11-29T13:07:57.972Z,9.53
2018-11-29T13:10:27.641Z,10.97
2018-11-29T13:12:56.293Z,8.93
2018-11-29T13:15:27.195Z,9.20
2018-11-29T13:17:56.421Z,12.43
2018-11-29T13:20:25.013Z,21.87
2018-11-29T13:22:53.696Z,7.10
2018-11-29T13:25:23.448Z,7.23
2018-11-29T13:27:52.070Z,14.30
2018-11-29T13:30:21.562Z,15.73
2018-11-29T13:32:52.392Z,23.97
2018-11-29T13:35:27.465Z,11.87
2018-11-29T13:38:01.333Z,9.50
2018-11-29T13:40:29.881Z,7.10
2018-11-29T13:42:58.791Z,6.30
2018-11-29T13:45:27.293Z,5.43
2018-11-29T13:47:55.870Z,6.90
2018-11-29T13:50:24.572Z,5.47
2018-11-29T13:52:53.110Z,6.40
2018-11-29T13:55:21.673Z,5.60
2018-11-29T13:57:50.793Z,6.83
2018-11-29T14:00:20.342Z,6.13
2018-11-29T14:02:53.170Z,5.53
2018-11-29T14:05:21.747Z,6.63
2018-11-29T14:07:50.483Z,5.80
2018-11-29T14:10:21.137Z,8.37
2018-11-29T14:12:51.861Z,10.20
2018-11-29T14:15:21.606Z,8.13
2018-11-29T14:17:50.150Z,6.80
2018-11-29T14:20:18.710Z,5.37
2018-11-29T14:22:47.509Z,7.20
2018-11-29T14:25:17.041Z,5.33
2018-11-29T14:27:47.295Z,6.70
2018-11-29T14:30:17.926Z,10.87
2018-11-29T14:32:46.538Z,11.80
2018-11-29T14:35:15.121Z,13.27
2018-11-29T14:37:43.706Z,11.73
2018-11-29T14:40:16.536Z,13.47
2018-11-29T14:42:45.110Z,11.70
2018-11-29T14:45:15.038Z,11.70
2018-11-29T14:47:43.619Z,8.33
2018-11-29T14:50:18.026Z,13.40
2018-11-29T14:52:47.025Z,9.03
2018-11-29T14:55:15.599Z,7.00
2018-11-29T14:57:44.212Z,5.07
2018-11-29T15:00:13.431Z,6.13
2018-11-29T15:02:42.398Z,5.60
2018-11-29T15:05:28.276Z,5.63
2018-11-29T15:07:56.940Z,5.30
2018-11-29T15:10:25.472Z,5.63
2018-11-29T15:12:54.096Z,3.80
2018-11-29T15:15:22.728Z,4.13
2018-11-29T15:17:52.464Z,4.63
2018-11-29T15:20:22.850Z,4.20
2018-11-29T15:22:51.425Z,4.73
2018-11-29T15:25:20.021Z,4.03
2018-11-29T15:27:48.598Z,4.30
2018-11-29T15:30:18.372Z,4.87
2018-11-29T15:32:46.922Z,3.80
2018-11-29T15:35:15.596Z,4.10
2018-11-29T15:37:44.317Z,5.00
2018-11-29T15:40:16.794Z,4.20
2018-11-29T15:42:52.103Z,4.70
2018-11-29T15:45:22.877Z,4.90
2018-11-29T15:47:51.837Z,5.00
2018-11-29T15:50:20.525Z,3.90
2018-11-29T15:52:49.183Z,4.40
2018-11-29T15:55:18.844Z,4.57
2018-11-29T15:57:48.490Z,4.57
2018-11-29T16:00:34.012Z,4.43
2018-11-29T16:03:05.318Z,4.77
2018-11-29T16:05:33.853Z,3.00
2018-11-29T16:08:02.435Z,3.87
2018-11-29T16:10:31.157Z,15.37
2018-11-29T16:12:59.716Z,9.40
2018-11-29T16:15:28.292Z,6.90
2018-11-29T16:17:56.931Z,5.60
2018-11-29T16:20:28.537Z,6.77
2018-11-29T16:22:57.152Z,4.43
2018-11-29T16:25:25.726Z,4.10
2018-11-29T16:27:54.306Z,4.07
2018-11-29T16:30:28.315Z,3.43
2018-11-29T16:32:58.478Z,4.43
2018-11-29T16:35:27.106Z,4.53
2018-11-29T16:37:55.697Z,4.73
2018-11-29T16:40:30.917Z,3.90
2018-11-29T16:42:59.432Z,4.10
2018-11-29T16:45:28.034Z,4.40
2018-11-29T16:47:56.615Z,4.30
2018-11-29T16:50:25.330Z,4.03
2018-11-29T16:52:53.921Z,22.40
2018-11-29T16:55:22.605Z,24.03
2018-11-29T16:57:53.242Z,17.43
2018-11-29T17:00:22.429Z,16.20
2018-11-29T17:02:51.221Z,12.33
2018-11-29T17:05:20.002Z,15.33
2018-11-29T17:07:48.572Z,33.13
2018-11-29T17:10:18.289Z,23.07
2018-11-29T17:12:49.562Z,31.97
2018-11-29T17:15:18.953Z,22.37
2018-11-29T17:17:47.573Z,9.77
2018-11-29T17:20:17.999Z,6.17
2018-11-29T17:22:46.596Z,7.00
2018-11-29T17:25:15.234Z,5.20
2018-11-29T17:27:43.808Z,5.10
2018-11-29T17:30:22.129Z,5.00
2018-11-29T17:32:52.029Z,6.80
2018-11-29T17:35:20.634Z,6.73
2018-11-29T17:37:49.386Z,6.10
2018-11-29T17:40:18.985Z,6.97
2018-11-29T17:42:47.554Z,4.77
2018-11-29T17:45:18.414Z,5.47
2018-11-29T17:47:47.273Z,6.30
2018-11-29T17:50:21.124Z,10.27
2018-11-29T17:52:49.674Z,7.87
2018-11-29T17:55:18.691Z,8.90
2018-11-29T17:57:47.228Z,7.13
2018-11-29T18:00:21.889Z,6.90
2018-11-29T18:02:50.460Z,5.87
2018-11-29T18:05:19.061Z,7.70
2018-11-29T18:07:47.622Z,10.07
2018-11-29T18:10:18.697Z,8.73
2018-11-29T18:12:49.685Z,6.87
2018-11-29T18:15:21.659Z,5.93
2018-11-29T18:17:50.251Z,6.40
2018-11-29T18:20:18.802Z,5.03
2018-11-29T18:22:47.343Z,5.27
2018-11-29T18:25:16.496Z,6.00
2018-11-29T18:27:50.409Z,5.87
2018-11-29T18:30:20.218Z,5.33
2018-11-29T18:32:48.765Z,5.07
2018-11-29T18:35:17.303Z,4.13
2018-11-29T18:37:45.927Z,5.30
2018-11-29T18:40:17.648Z,4.30
2018-11-29T18:42:47.337Z,4.70
2018-11-29T18:45:17.688Z,5.97
2018-11-29T18:47:48.283Z,5.23
2018-11-29T18:51:22.951Z,4.97
2018-11-29T18:53:51.530Z,4.80
2018-11-29T18:56:20.176Z,4.90
2018-11-29T18:58:48.860Z,6.03
2018-11-29T19:01:17.406Z,5.03
2018-11-29T19:03:45.924Z,4.87
2018-11-29T19:06:14.611Z,5.57
2018-11-29T19:08:43.182Z,5.07
2018-11-29T19:11:11.782Z,4.33
2018-11-29T19:13:40.301Z,4.77
2018-11-29T19:16:08.982Z,4.80
2018-11-29T19:18:37.559Z,4.73
2018-11-29T19:21:06.516Z,6.10
2018-11-29T19:23:35.285Z,4.90
2018-11-29T19:26:03.741Z,5.57
2018-11-29T19:28:32.381Z,5.93
2018-11-29T19:31:00.916Z,4.43
2018-11-29T19:33:29.481Z,5.80
2018-11-29T19:35:58.290Z,5.53
2018-11-29T19:38:26.990Z,5.50
2018-11-29T19:40:55.660Z,5.10
2018-11-29T19:43:24.278Z,5.00
2018-11-29T19:45:52.897Z,5.40
2018-11-29T19:48:21.607Z,4.60
2018-11-29T19:50:50.340Z,5.20
2018-11-29T19:53:23.388Z,5.97
2018-11-29T19:55:54.616Z,5.10
2018-11-29T19:58:23.193Z,5.30
2018-11-29T20:00:51.732Z,5.70
2018-11-29T20:03:20.387Z,4.87
2018-11-29T20:05:49.039Z,5.23
2018-11-29T20:08:17.616Z,5.97
2018-11-29T20:10:46.330Z,5.50
2018-11-29T20:13:15.464Z,5.00
2018-11-29T20:15:45.905Z,6.13
2018-11-29T20:18:14.917Z,6.13
2018-11-29T20:20:43.531Z,5.13
2018-11-29T20:23:12.767Z,6.37
2018-11-29T20:25:48.522Z,5.50
2018-11-29T20:28:17.083Z,4.80
2018-11-29T20:30:45.684Z,5.37
2018-11-29T20:33:14.264Z,6.27
2018-11-29T20:35:42.903Z,5.00
2018-11-29T20:38:11.413Z,5.10
2018-11-29T20:40:41.771Z,4.90
2018-11-29T20:43:10.287Z,6.20
2018-11-29T20:45:48.153Z,6.80
2018-11-29T20:48:19.020Z,6.47
2018-11-29T20:50:47.967Z,6.67
2018-11-29T20:53:18.736Z,6.87
2018-11-29T20:55:47.363Z,6.60
2018-11-29T20:58:15.906Z,5.30
2018-11-29T21:00:44.568Z,6.60
2018-11-29T21:03:13.080Z,5.40
2018-11-29T21:05:42.831Z,5.30
2018-11-29T21:08:12.074Z,5.40
2018-11-29T21:10:40.661Z,5.43
2018-11-29T21:13:09.293Z,5.90
2018-11-29T21:15:39.216Z,4.80
2018-11-29T21:18:09.145Z,5.73
2018-11-29T21:20:37.932Z,5.90
2018-11-29T21:23:08.233Z,5.07
2018-11-29T21:25:36.802Z,5.73
2018-11-29T21:28:06.263Z,6.63
2018-11-29T21:30:34.852Z,5.13
2018-11-29T21:33:03.475Z,4.80
2018-11-29T21:35:32.021Z,5.13
2018-11-29T21:38:01.224Z,4.73
2018-11-29T21:40:31.859Z,4.30
2018-11-29T21:43:00.704Z,4.53
2018-11-29T21:45:29.478Z,5.27
2018-11-29T21:47:58.013Z,5.17
2018-11-29T21:50:26.567Z,5.17
2018-11-29T21:52:55.116Z,5.20
2018-11-29T21:55:23.725Z,5.50
2018-11-29T21:57:52.539Z,5.17
2018-11-29T22:00:22.088Z,5.73
2018-11-29T22:02:58.481Z,4.93
2018-11-29T22:05:27.038Z,4.73
2018-11-29T22:07:55.584Z,4.67
2018-11-29T22:10:24.197Z,4.80
2018-11-29T22:12:52.813Z,4.50
2018-11-29T22:15:21.430Z,5.20
2018-11-29T22:18:23.021Z,4.97
2018-11-29T22:21:01.512Z,4.77
2018-11-29T22:23:30.493Z,4.53
2018-11-29T22:26:00.162Z,4.63
2018-11-29T22:28:29.113Z,5.03
2018-11-29T22:30:57.642Z,5.07
2018-11-29T22:33:26.207Z,4.53
2018-11-29T22:35:54.767Z,4.87
2018-11-29T22:38:23.362Z,4.73
2018-11-29T22:40:52.261Z,4.90
2018-11-29T22:43:20.814Z,4.97
2018-11-29T22:45:49.438Z,5.50
2018-11-29T22:48:18.059Z,5.20
2018-11-29T22:50:46.625Z,4.70
2018-11-29T22:53:15.197Z,5.53
2018-11-29T22:55:44.085Z,5.17
2018-11-29T22:58:12.664Z,5.00
2018-11-29T23:00:46.760Z,5.20
2018-11-29T23:03:15.270Z,5.60
2018-11-29T23:05:44.779Z,3.97
2018-11-29T23:08:13.407Z,4.60
2018-11-29T23:10:41.992Z,4.90
2018-11-29T23:13:10.490Z,5.03
2018-11-29T23:15:38.996Z,4.93
2018-11-29T23:18:07.641Z,4.97
2018-11-29T23:20:36.416Z,5.27
2018-11-29T23:23:05.022Z,5.40
2018-11-29T23:25:33.541Z,4.03
2018-11-29T23:28:02.102Z,4.20
2018-11-29T23:30:30.620Z,4.37
2018-11-29T23:32:59.260Z,5.13
2018-11-29T23:35:27.780Z,5.50
2018-11-29T23:37:56.302Z,5.00
2018-11-29T23:40:24.817Z,4.53
2018-11-29T23:42:53.357Z,5.20
2018-11-29T23:45:21.876Z,4.73
2018-11-29T23:47:50.402Z,4.53
2018-11-29T23:50:19.390Z,4.90
2018-11-29T23:52:48.032Z,4.07
2018-11-29T23:55:19.905Z,4.90
2018-11-29T23:57:48.440Z,5.20
